This is the latest recevied weather packets stored in our database for station/object EA5LU-10. If no packets are shown the sender has not sent any weather packets the latest 10 day(s).
| Time | Temp. | Humidity | Pressure | Rain* | Wind** | Luminosity | Snow |
|---|---|---|---|---|---|---|---|
| 1777630799 | 21.67° C | 73% | 1012.2 hPa | - | - | - | - |
| 1777629899 | 21.11° C | 75% | 1012.4 hPa | - | - | - | - |
| 1777628998 | 21.67° C | 72% | 1012.2 hPa | - | - | - | - |
| 1777628096 | 22.22° C | 67% | 1012 hPa | - | - | - | - |
| 1777627195 | 22.78° C | 66% | 1011.9 hPa | - | - | - | - |
| 1777626295 | 22.22° C | 67% | 1011.8 hPa | - | - | - | - |
| 1777625394 | 22.22° C | 69% | 1011.6 hPa | - | - | - | - |
| 1777624493 | 22.22° C | 69% | 1011.4 hPa | - | - | - | - |
| 1777623592 | 22.22° C | 69% | 1011.1 hPa | - | - | - | - |
| 1777622691 | 22.22° C | 69% | 1011 hPa | - | - | - | - |
| 1777621790 | 22.22° C | 72% | 1010.9 hPa | - | - | - | - |
| 1777620890 | 21.67° C | 74% | 1010.9 hPa | - | - | - | - |
| 1777619989 | 21.11° C | 76% | 1010.7 hPa | - | - | - | - |
| 1777619088 | 21.11° C | 77% | 1010.5 hPa | - | - | - | - |
| 1777618187 | 20° C | 79% | 1010.4 hPa | - | - | - | - |
| 1777617286 | 19.44° C | 82% | 1010.3 hPa | - | - | - | - |
| 1777616386 | 18.89° C | 83% | 1010.1 hPa | - | - | - | - |
| 1777615485 | 18.89° C | 83% | 1010 hPa | - | - | - | - |
| 1777614584 | 18.89° C | 83% | 1009.9 hPa | - | - | - | - |
| 1777613683 | 18.89° C | 83% | 1009.7 hPa | - | - | - | - |
| 1777612782 | 19.44° C | 83% | 1009.5 hPa | - | - | - | - |
| 1777611881 | 19.44° C | 83% | 1009.4 hPa | - | - | - | - |
| 1777610981 | 19.44° C | 84% | 1009.2 hPa | - | - | - | - |
| 1777610080 | 18.89° C | 84% | 1009.1 hPa | - | - | - | - |
| 1777609179 | 19.44° C | 84% | 1009.1 hPa | - | - | - | - |
* Rain since midnight (hover to see other rain measurements)
** Current wind speed in m/s (hover to see current wind gust speed)